Time;durP1;ratioP1;P1;durP2;ratioP2;P2;SDS_P1;SDS_P2;PMS_P1;PMS_P2;Temp;Humidity;BMP_temperature;BMP_pressure;BME280_temperature;BME280_humidity;BME280_pressure;Samples;Min_cycle;Max_cycle;Signal;HPM_P1;HPM_P2
2023/08/25 00:02:53;;;;;;;;;;;120.61;114.10;;;;;;2672548;76;22299;-91
2023/08/25 00:06:23;;;;;;;12.63;4.60;;;120.61;114.10;;;;;;2671498;76;21036;-91
2023/08/25 00:09:51;;;;;;;;;;;120.61;114.10;;;;;;2671696;76;22316;-92
2023/08/25 00:13:21;;;;;;;5.65;3.02;;;120.61;114.10;;;;;;2671639;76;21086;-92
2023/08/25 00:16:49;;;;;;;;;;;120.61;114.10;;;;;;2671977;76;22273;-92
2023/08/25 00:20:18;;;;;;;10.08;4.45;;;120.61;114.10;;;;;;2672251;76;20996;-92
2023/08/25 00:23:47;;;;;;;;;;;120.61;114.10;;;;;;2671843;76;22397;-92
2023/08/25 00:27:16;;;;;;;17.90;6.78;;;120.61;114.10;;;;;;2672108;76;21005;-91
2023/08/25 00:30:44;;;;;;;;;;;120.61;114.10;;;;;;2672068;76;22795;-92
2023/08/25 00:34:13;;;;;;;9.93;4.45;;;120.61;114.10;;;;;;2671791;76;21127;-91
2023/08/25 00:37:42;;;;;;;;;;;120.61;114.10;;;;;;2671577;76;22235;-91
2023/08/25 00:41:11;;;;;;;8.50;4.15;;;120.61;114.10;;;;;;2671484;76;21142;-91
2023/08/25 00:44:39;;;;;;;;;;;120.61;114.10;;;;;;2672490;76;22282;-91
2023/08/25 00:48:08;;;;;;;10.43;4.35;;;120.61;114.10;;;;;;2671226;76;21127;-90
2023/08/25 00:51:36;;;;;;;;;;;120.61;114.10;;;;;;2672147;76;22904;-91
2023/08/25 00:55:06;;;;;;;15.70;3.72;;;120.61;114.10;;;;;;2671626;76;21008;-91
2023/08/25 00:58:34;;;;;;;;;;;120.61;114.10;;;;;;2672301;76;22299;-91
2023/08/25 01:02:03;;;;;;;10.72;3.72;;;120.61;114.10;;;;;;2671391;76;21101;-91
2023/08/25 01:05:31;;;;;;;;;;;120.61;114.10;;;;;;2672410;76;22612;-90
2023/08/25 01:09:00;;;;;;;14.10;4.72;;;120.61;114.10;;;;;;2671246;76;21136;-90
2023/08/25 01:12:28;;;;;;;;;;;120.61;114.10;;;;;;2672363;76;22306;-91
2023/08/25 01:15:57;;;;;;;8.70;3.75;;;120.61;114.10;;;;;;2672043;76;21155;-91
2023/08/25 07:37:59;;;;;;;;;;;120.61;114.10;;;;;;2674379;76;20447;-86
2023/08/25 07:41:27;;;;;;;;;;;120.61;114.10;;;;;;2675097;76;20466;-86
2023/08/25 07:44:55;;;;;;;;;;;120.61;114.10;;;;;;2674234;75;21096;-85
2023/08/25 07:48:23;;;;;;;;;;;120.61;114.10;;;;;;2674098;76;20447;-86
2023/08/25 07:51:51;;;;;;;;;;;120.61;114.10;;;;;;2674560;76;20735;-86
2023/08/25 07:55:20;;;;;;;;;;;120.61;114.10;;;;;;2673936;75;20446;-86
2023/08/25 07:58:48;;;;;;;;;;;120.61;114.10;;;;;;2673374;76;20893;-86
2023/08/25 08:02:16;;;;;;;;;;;120.61;114.10;;;;;;2673831;76;20471;-85
2023/08/25 08:05:44;;;;;;;;;;;120.61;114.10;;;;;;2674223;75;20329;-85
2023/08/25 09:10:50;;;;;;;;;;;120.61;114.10;;;;;;2674104;76;20330;-85
2023/08/25 09:14:19;;;;;;;;;;;120.61;114.10;;;;;;2673698;75;20294;-85
2023/08/25 09:17:47;;;;;;;;;;;120.61;114.10;;;;;;2673755;76;20786;-86
2023/08/25 09:21:15;;;;;;;;;;;120.61;114.10;;;;;;2674386;75;20311;-85
2023/08/25 09:24:43;;;;;;;;;;;120.61;114.10;;;;;;2674344;76;20428;-86
2023/08/25 09:28:11;;;;;;;;;;;120.61;114.10;;;;;;2673516;75;20409;-86
2023/08/25 09:31:40;;;;;;;;;;;120.61;114.10;;;;;;2674343;76;20411;-86
2023/08/25 09:35:08;;;;;;;;;;;120.61;114.10;;;;;;2674186;76;20414;-86
2023/08/25 09:38:36;;;;;;;;;;;120.61;114.10;;;;;;2673656;76;20409;-85
2023/08/25 09:42:04;;;;;;;;;;;120.61;114.10;;;;;;2674692;75;21410;-85
2023/08/25 09:45:37;;;;;;;;;;;120.61;114.10;;;;;;2674057;76;20417;-86
2023/08/25 09:49:05;;;;;;;;;;;120.61;114.10;;;;;;2673917;76;20450;-85
2023/08/25 09:52:33;;;;;;;;;;;120.61;114.10;;;;;;2673912;76;20862;-85
2023/08/25 09:56:01;;;;;;;;;;;120.61;114.10;;;;;;2673974;75;20434;-85
2023/08/25 09:59:29;;;;;;;;;;;120.61;114.10;;;;;;2673699;76;20431;-86
2023/08/25 10:02:57;;;;;;;;;;;120.61;114.10;;;;;;2674078;76;20409;-86
2023/08/25 10:06:25;;;;;;;;;;;120.61;114.10;;;;;;2673821;76;20456;-86
2023/08/25 10:09:54;;;;;;;;;;;120.61;114.10;;;;;;2674243;76;20430;-86
2023/08/25 10:13:22;;;;;;;;;;;120.61;114.10;;;;;;2674249;76;20417;-86
2023/08/25 10:16:50;;;;;;;;;;;120.61;114.10;;;;;;2673713;76;20418;-85
2023/08/25 10:20:18;;;;;;;;;;;120.61;114.10;;;;;;2673310;76;20403;-86
2023/08/25 10:23:46;;;;;;;;;;;120.61;114.10;;;;;;2671713;76;20338;-85
2023/08/25 10:27:14;;;;;;;;;;;120.61;114.10;;;;;;2672237;76;20425;-85
2023/08/25 10:30:43;;;;;;;;;;;120.61;114.10;;;;;;2672163;76;20405;-86
2023/08/25 10:34:11;;;;;;;;;;;120.61;114.10;;;;;;2672281;76;20879;-86
2023/08/25 10:37:39;;;;;;;;;;;120.61;114.10;;;;;;2671965;76;20438;-85
2023/08/25 10:41:07;;;;;;;;;;;120.61;114.10;;;;;;2672489;76;21018;-86
2023/08/25 10:44:35;;;;;;;;;;;120.61;114.10;;;;;;2672528;76;20419;-86
2023/08/25 10:48:03;;;;;;;;;;;120.61;114.10;;;;;;2672314;76;20410;-86
2023/08/25 10:51:33;;;;;;;;;;;120.61;114.10;;;;;;2672403;76;20489;-86
2023/08/25 10:55:01;;;;;;;;;;;120.61;114.10;;;;;;2672648;76;20426;-87
2023/08/25 11:56:01;;;;;;;;;;;120.61;114.10;;;;;;2675519;75;20954;-88
2023/08/25 11:59:30;;;;;;;;;;;120.61;114.10;;;;;;2674921;75;20987;-89
2023/08/25 12:02:58;;;;;;;;;;;120.61;114.10;;;;;;2675068;75;20914;-89
2023/08/25 12:06:26;;;;;;;;;;;120.61;114.10;;;;;;2675088;76;21043;-89
2023/08/25 12:09:54;;;;;;;;;;;120.61;114.10;;;;;;2675345;75;21075;-89
2023/08/25 12:13:23;;;;;;;;;;;120.61;114.10;;;;;;2674362;76;20425;-89
2023/08/25 12:16:51;;;;;;;;;;;120.61;114.10;;;;;;2674769;75;20447;-89
2023/08/25 12:20:19;;;;;;;;;;;120.61;114.10;;;;;;2674915;76;20916;-89
2023/08/25 12:23:47;;;;;;;;;;;120.61;114.10;;;;;;2674446;76;20458;-89
2023/08/25 12:27:15;;;;;;;;;;;120.61;114.10;;;;;;2674758;75;20489;-88
2023/08/25 12:30:43;;;;;;;;;;;120.61;114.10;;;;;;2674605;76;20445;-88
2023/08/25 12:34:12;;;;;;;;;;;120.61;114.10;;;;;;2674799;76;20451;-89
2023/08/25 12:37:40;;;;;;;;;;;120.61;114.10;;;;;;2674469;76;20456;-89
2023/08/25 12:50:08;;;;;;;;;;;120.61;114.10;;;;;;2674962;76;20445;-89
2023/08/25 12:53:36;;;;;;;;;;;120.61;114.10;;;;;;2674835;76;20432;-89
2023/08/25 12:57:04;;;;;;;;;;;120.61;114.10;;;;;;2674791;76;20436;-89
2023/08/25 13:00:32;;;;;;;;;;;120.61;114.10;;;;;;2674672;76;20464;-89
2023/08/25 13:04:00;;;;;;;;;;;120.61;114.10;;;;;;2674796;75;20630;-89
2023/08/25 13:07:28;;;;;;;;;;;120.61;114.10;;;;;;2674784;76;20910;-90
2023/08/25 13:10:57;;;;;;;;;;;120.61;114.10;;;;;;2675063;75;20681;-89
2023/08/25 13:14:25;;;;;;;;;;;120.61;114.10;;;;;;2675205;76;21223;-88
2023/08/25 13:17:53;;;;;;;;;;;120.61;114.10;;;;;;2674856;76;20487;-89
2023/08/25 13:21:21;;;;;;;;;;;120.61;114.10;;;;;;2674027;76;20546;-89
2023/08/25 13:24:49;;;;;;;;;;;120.61;114.10;;;;;;2674330;76;20513;-88
2023/08/25 13:28:18;;;;;;;;;;;120.61;114.10;;;;;;2674462;76;20483;-89
2023/08/25 13:31:46;;;;;;;;;;;120.61;114.10;;;;;;2674565;75;20471;-88
2023/08/25 13:35:14;;;;;;;;;;;120.61;114.10;;;;;;2674688;76;20473;-89
2023/08/25 13:38:42;;;;;;;;;;;120.61;114.10;;;;;;2674418;75;20447;-89
2023/08/25 13:42:10;;;;;;;;;;;120.61;114.10;;;;;;2675152;76;20440;-89
2023/08/25 13:45:48;;;;;;;;;;;;;;;;;;;;;
2023/08/25 13:52:07;;;;;;;;;;;120.61;114.10;;;;;;2674714;75;20509;-89
2023/08/25 13:58:19;;;;;;;;;;;120.61;114.10;;;;;;2675109;76;20424;-89
2023/08/25 14:01:47;;;;;;;;;;;120.61;114.10;;;;;;2674739;75;20471;-90
2023/08/25 14:05:17;;;;;;;;;;;120.61;114.10;;;;;;2675080;75;20452;-89
2023/08/25 14:08:47;;;;;;;;;;;120.61;114.10;;;;;;2674765;76;20463;-89
2023/08/25 14:12:15;;;;;;;;;;;120.61;114.10;;;;;;2675136;76;20471;-89
2023/08/25 14:15:43;;;;;;;;;;;120.61;114.10;;;;;;2674637;75;20673;-89
2023/08/25 14:19:11;;;;;;;;;;;120.61;114.10;;;;;;2674370;75;20553;-90
2023/08/25 14:22:42;;;;;;;;;;;120.61;114.10;;;;;;2674842;75;20760;-89
2023/08/25 14:26:11;;;;;;;;;;;120.61;114.10;;;;;;2674043;76;20456;-89
2023/08/25 14:29:39;;;;;;;;;;;120.61;114.10;;;;;;2673623;76;20446;-90
2023/08/25 14:33:07;;;;;;;;;;;120.61;114.10;;;;;;2675158;76;20413;-89
2023/08/25 14:36:35;;;;;;;;;;;120.61;114.10;;;;;;2674715;75;20962;-89
2023/08/25 14:40:04;;;;;;;;;;;120.61;114.10;;;;;;2675303;76;20344;-89
2023/08/25 14:43:32;;;;;;;;;;;120.61;114.10;;;;;;2674725;76;20475;-89
2023/08/25 14:47:00;;;;;;;;;;;120.61;114.10;;;;;;2675049;75;20424;-90
2023/08/25 14:50:29;;;;;;;;;;;120.61;114.10;;;;;;2674780;76;20434;-89
2023/08/25 14:53:57;;;;;;;;;;;120.61;114.10;;;;;;2674687;76;20418;-89
2023/08/25 14:57:25;;;;;;;;;;;120.61;114.10;;;;;;2674909;76;20448;-88
2023/08/25 15:00:54;;;;;;;;;;;120.61;114.10;;;;;;2674288;76;20480;-90
2023/08/25 15:04:22;;;;;;;;;;;120.61;114.10;;;;;;2675094;75;20431;-88
2023/08/25 15:07:50;;;;;;;;;;;120.61;114.10;;;;;;2673920;76;20433;-89
2023/08/25 15:11:18;;;;;;;;;;;120.61;114.10;;;;;;2672837;76;20487;-89
2023/08/25 15:14:46;;;;;;;;;;;120.61;114.10;;;;;;2673007;76;20485;-88
2023/08/25 15:18:15;;;;;;;;;;;120.61;114.10;;;;;;2672451;76;20432;-87
2023/08/25 15:21:43;;;;;;;;;;;120.61;114.10;;;;;;2672598;76;20488;-86
2023/08/25 15:25:11;;;;;;;;;;;120.61;114.10;;;;;;2672889;76;20472;-86
2023/08/25 15:28:40;;;;;;;;;;;120.61;114.10;;;;;;2672309;76;20571;-87
2023/08/25 15:32:08;;;;;;;;;;;120.61;114.10;;;;;;2673045;76;20451;-86
2023/08/25 15:35:36;;;;;;;;;;;120.61;114.10;;;;;;2672725;76;20435;-86
2023/08/25 15:39:04;;;;;;;;;;;120.61;114.10;;;;;;2672540;76;20812;-86
2023/08/25 15:42:32;;;;;;;;;;;120.61;114.10;;;;;;2672909;76;20501;-87
2023/08/25 15:46:00;;;;;;;;;;;120.61;114.10;;;;;;2672702;76;20333;-87
2023/08/25 15:49:28;;;;;;;;;;;120.61;114.10;;;;;;2672049;76;21053;-87
2023/08/25 15:52:57;;;;;;;;;;;120.61;114.10;;;;;;2671975;76;20352;-87
2023/08/25 15:56:25;;;;;;;;;;;120.61;114.10;;;;;;2672402;76;20333;-86
2023/08/25 15:59:53;;;;;;;;;;;120.61;114.10;;;;;;2671889;76;20435;-86
2023/08/25 16:42:28;;;;;;;;;;;120.61;114.10;;;;;;2674918;75;20445;-86
2023/08/25 16:45:56;;;;;;;;;;;120.61;114.10;;;;;;2674620;76;20420;-86
2023/08/25 16:49:24;;;;;;;;;;;120.61;114.10;;;;;;2673963;76;20455;-86
2023/08/25 16:52:52;;;;;;;;;;;120.61;114.10;;;;;;2674232;76;20427;-87
2023/08/25 16:56:20;;;;;;;;;;;120.61;114.10;;;;;;2673195;76;20466;-87
2023/08/25 16:59:48;;;;;;;;;;;120.61;114.10;;;;;;2673594;76;20626;-87
2023/08/25 17:09:28;;;;;;;;;;;120.61;114.10;;;;;;2674512;75;20813;-87
2023/08/25 17:12:57;;;;;;;;;;;120.61;114.10;;;;;;2674310;76;20449;-86
2023/08/25 19:53:14;;;;;;;;;;;120.61;114.10;;;;;;2675346;75;20421;-87
2023/08/25 19:56:42;;;;;;;;;;;120.61;114.10;;;;;;2674568;75;20492;-87
2023/08/25 20:00:11;;;;;;;;;;;120.61;114.10;;;;;;2673616;76;20400;-87
2023/08/25 20:03:39;;;;;;;;;;;120.61;114.10;;;;;;2674125;76;20452;-85
2023/08/25 20:07:07;;;;;;;;;;;120.61;114.10;;;;;;2674571;76;20921;-87
2023/08/25 20:10:36;;;;;;;;;;;120.61;114.10;;;;;;2674497;76;20451;-87
2023/08/25 21:31:17;;;;;;;;;;;120.61;114.10;;;;;;2674217;76;20414;-87
2023/08/25 21:34:46;;;;;;;;;;;120.61;114.10;;;;;;2674804;75;20886;-86
2023/08/25 22:45:58;;;;;;;;;;;120.61;114.10;;;;;;2675284;75;20445;-88
2023/08/25 22:49:28;;;;;;;;;;;120.61;114.10;;;;;;2674786;76;20977;-89
2023/08/25 23:51:30;;;;;;;;;;;120.61;114.10;;;;;;2675077;76;20369;-90
